Airfield :
LOGIN :

Register | Disclaimer

   EN    FR    IT 

 










Legend :    VFR   Marginal VFR   IFR   Intensive IFR   Very Intensive IFR
Visi :
Ceiling :
>= 8 km
>= 3000ft
5 to 8 km
1000 to 3000 ft
1500m to 5 km
500 to 1000 ft
800 to 1500m
200 to 500 ft
< 800m
< 200 ft
Symbols :   Thunderstorms  Fog  Heavy snow  Heavy precipitations  Wind > 20 kt
SIGMETs :     Misc.  Thunderstorms  Icing  Turbulence  Mountain Waves  Volcanic Ashes







- Airport Elevation : 400 ft
- IATA code : BNX


LQBK - Banja Luka

CURRENT METAR :
  • 150130Z 33003KT 1700 SN BR BKN007 OVC013 M01/M01 Q1018 NOSIG

EXPIRED METARs :
  • 150100Z 32003KT 1700 SN BR BKN007 OVC013 M01/M01 Q1018 NOSIG
  • 150030Z 31003KT 1700 SN BR BKN007 OVC013 M01/M01 Q1018 NOSIG
  • 150000Z 31004KT 1700 SN BR BKN007 OVC013 M01/M01 Q1018 NOSIG
  • 142330Z 31003KT 2500 SN BR BKN010 OVC013 M01/M01 Q1018 NOSIG
  • 142300Z 31003KT 2000 SN BR BKN010 OVC013 M01/M01 Q1018 NOSIG

TAF TAF LQBK
Valid from the 15 at 00:00 until the 16 at 00:00 UTC


142300Z 1500/1524 33005KT 3000 -SN BR BKN012 OVC025 TXM01/1513Z TNM03/1523Z
TEMPO 1500/1512 1200 SN BKN007 OVC015
No reported NOTAMs for that airfield.



MET'MAP, your aeronautical weather chart ! - Copyright ORBIFLY December 2007 - Disclaimer

ORBIFLY MET'MAP TEAM :

Programming & Development : Alexandra Zaïnal
Concept & Development : Baudouin d'Aumeries
Co-Development & Prog : Marc-Olivier Méhu
Technical & hardware support : Manuel Goepfert

Contact : metmap@orbifly.com




SOURCES & CREDITS :

   NOAA